createdAt,value
2019-01-13T00:01:23.608Z,6.54
2019-01-13T00:03:54.530Z,6.57
2019-01-13T00:06:25.065Z,6.55
2019-01-13T00:08:55.635Z,6.54
2019-01-13T00:11:26.138Z,6.57
2019-01-13T00:13:56.785Z,6.59
2019-01-13T00:16:27.340Z,6.57
2019-01-13T00:18:58.166Z,6.59
2019-01-13T00:21:28.677Z,6.62
2019-01-13T00:23:59.173Z,6.62
2019-01-13T00:26:29.776Z,6.62
2019-01-13T00:29:00.256Z,6.61
2019-01-13T00:31:30.837Z,6.63
2019-01-13T00:34:01.362Z,6.63
2019-01-13T00:36:31.884Z,6.67
2019-01-13T00:39:02.428Z,6.67
2019-01-13T00:41:33.880Z,6.66
2019-01-13T00:44:05.893Z,6.66
2019-01-13T00:46:36.454Z,6.68
2019-01-13T00:49:07.050Z,6.76
2019-01-13T00:51:37.639Z,6.74
2019-01-13T00:54:08.144Z,6.73
2019-01-13T00:56:38.673Z,6.71
2019-01-13T00:59:09.229Z,6.72
2019-01-13T01:01:39.738Z,6.78
2019-01-13T01:04:10.271Z,6.75
2019-01-13T01:06:40.791Z,6.77
2019-01-13T01:09:12.184Z,6.78
2019-01-13T01:11:42.720Z,6.79
2019-01-13T01:14:13.336Z,6.78
2019-01-13T01:16:43.896Z,6.82
2019-01-13T01:19:14.406Z,6.78
2019-01-13T01:21:44.947Z,6.79
2019-01-13T01:24:15.450Z,6.81
2019-01-13T01:26:46.031Z,6.82
2019-01-13T01:29:16.580Z,6.77
2019-01-13T01:31:47.135Z,6.78
2019-01-13T01:34:17.691Z,6.78
2019-01-13T01:36:48.225Z,6.79
2019-01-13T01:39:18.768Z,6.80
2019-01-13T01:41:49.283Z,6.78
2019-01-13T01:44:19.769Z,6.73
2019-01-13T01:46:50.349Z,6.74
2019-01-13T01:49:20.865Z,6.72
2019-01-13T01:51:51.426Z,6.71
2019-01-13T01:54:21.885Z,6.73
2019-01-13T01:56:53.417Z,6.76
2019-01-13T01:59:23.931Z,6.77
2019-01-13T02:01:54.524Z,6.76
2019-01-13T02:04:25.122Z,6.78
2019-01-13T02:06:55.690Z,6.76
2019-01-13T02:09:26.242Z,6.77
2019-01-13T02:11:56.836Z,6.77
2019-01-13T02:14:27.369Z,6.75
2019-01-13T02:16:57.895Z,6.76
2019-01-13T02:19:28.393Z,6.76
2019-01-13T02:21:58.946Z,6.77
2019-01-13T02:24:29.464Z,6.76
2019-01-13T02:27:00.008Z,6.76
2019-01-13T02:29:30.533Z,6.77
2019-01-13T02:32:01.064Z,6.78
2019-01-13T02:34:31.594Z,6.79
2019-01-13T02:37:02.142Z,6.79
2019-01-13T02:39:32.661Z,6.76
2019-01-13T02:42:03.235Z,6.75
2019-01-13T02:44:33.710Z,6.77
2019-01-13T02:47:04.261Z,6.77
2019-01-13T02:49:34.793Z,6.80
2019-01-13T02:52:05.345Z,6.80
2019-01-13T02:54:35.913Z,6.82
2019-01-13T02:57:06.435Z,6.84
2019-01-13T02:59:36.920Z,6.83
2019-01-13T03:02:08.184Z,6.84
2019-01-13T03:04:38.693Z,6.84
2019-01-13T03:07:09.211Z,6.87
2019-01-13T03:09:39.716Z,6.87
2019-01-13T03:12:10.291Z,6.85
2019-01-13T03:14:40.820Z,6.87
2019-01-13T03:17:11.374Z,6.87
2019-01-13T03:19:41.896Z,6.87
2019-01-13T03:22:12.443Z,6.87
2019-01-13T03:24:42.935Z,6.83
2019-01-13T03:27:13.456Z,6.85
2019-01-13T03:29:44.024Z,6.85
2019-01-13T03:32:14.640Z,6.85
2019-01-13T03:34:45.116Z,6.87
2019-01-13T03:37:15.675Z,6.88
2019-01-13T03:39:46.235Z,6.85
2019-01-13T03:42:16.766Z,6.86
2019-01-13T03:44:47.303Z,6.89
2019-01-13T03:47:17.822Z,6.88
2019-01-13T03:49:48.363Z,6.84
2019-01-13T03:52:18.936Z,6.85
2019-01-13T03:54:49.495Z,6.85
2019-01-13T03:57:19.997Z,6.84
2019-01-13T03:59:50.533Z,6.82
2019-01-13T04:02:21.040Z,6.82
2019-01-13T04:04:51.603Z,6.82
2019-01-13T04:07:22.120Z,6.82
2019-01-13T04:09:52.585Z,6.83
2019-01-13T04:12:24.023Z,6.83
2019-01-13T04:14:54.533Z,6.85
2019-01-13T04:17:26.352Z,6.84
2019-01-13T04:19:56.911Z,6.85
2019-01-13T04:22:27.411Z,6.84
2019-01-13T04:24:57.926Z,6.85
2019-01-13T04:27:29.899Z,6.86
2019-01-13T04:30:00.458Z,6.89
2019-01-13T04:32:31.025Z,6.87
2019-01-13T04:35:01.709Z,6.89
2019-01-13T04:37:32.214Z,6.90
2019-01-13T04:40:02.749Z,6.89
2019-01-13T04:42:33.275Z,6.88
2019-01-13T04:45:04.084Z,6.90
2019-01-13T04:47:34.618Z,6.88
2019-01-13T04:50:06.075Z,6.88
2019-01-13T04:52:36.631Z,6.89
2019-01-13T04:55:07.402Z,6.86
2019-01-13T04:57:40.412Z,6.83
2019-01-13T05:00:15.716Z,6.86
2019-01-13T05:02:46.746Z,6.85
2019-01-13T05:05:17.259Z,6.85
2019-01-13T05:07:47.774Z,6.86
2019-01-13T05:10:20.137Z,6.84
2019-01-13T05:12:50.717Z,6.86
2019-01-13T05:15:21.219Z,6.85
2019-01-13T05:17:51.764Z,6.86
2019-01-13T05:20:23.512Z,6.85
2019-01-13T05:22:57.082Z,6.82
2019-01-13T05:25:27.688Z,6.81
2019-01-13T05:27:58.247Z,6.83
2019-01-13T05:30:28.728Z,6.81
2019-01-13T05:32:59.205Z,6.83
2019-01-13T05:35:29.793Z,6.78
2019-01-13T05:38:03.805Z,6.76
2019-01-13T05:40:34.380Z,6.76
2019-01-13T05:43:04.896Z,6.75
2019-01-13T05:45:35.503Z,6.77
2019-01-13T05:48:06.059Z,6.80
2019-01-13T05:50:40.758Z,6.80
2019-01-13T05:53:13.812Z,6.81
2019-01-13T05:55:45.943Z,6.79
2019-01-13T05:58:21.378Z,6.78
2019-01-13T06:00:54.536Z,6.80
2019-01-13T06:03:29.740Z,6.82
2019-01-13T06:06:04.775Z,6.82
2019-01-13T06:08:39.917Z,6.81
2019-01-13T06:11:11.504Z,6.82
2019-01-13T06:13:45.697Z,6.82
2019-01-13T06:16:21.170Z,6.82
2019-01-13T06:18:51.771Z,6.81
2019-01-13T06:21:22.326Z,6.79
2019-01-13T06:23:52.873Z,6.81
2019-01-13T06:26:23.408Z,6.82
2019-01-13T06:28:53.945Z,6.83
2019-01-13T06:31:28.436Z,6.84
2019-01-13T06:33:58.965Z,6.83
2019-01-13T06:36:29.545Z,6.83
2019-01-13T06:39:00.047Z,6.81
2019-01-13T06:41:30.555Z,6.84
2019-01-13T06:44:01.103Z,6.85
2019-01-13T06:46:31.655Z,6.85
2019-01-13T06:49:02.312Z,6.88
2019-01-13T06:51:32.818Z,6.87
2019-01-13T06:54:03.358Z,6.86
2019-01-13T06:56:33.881Z,6.89
2019-01-13T06:59:04.415Z,6.88
2019-01-13T07:01:34.986Z,6.87
2019-01-13T07:04:07.010Z,6.90
2019-01-13T07:06:37.560Z,6.90
2019-01-13T07:09:09.368Z,6.90
2019-01-13T07:11:39.904Z,6.89
2019-01-13T07:14:10.446Z,6.90
2019-01-13T07:16:41.001Z,6.95
2019-01-13T07:19:11.575Z,6.92
2019-01-13T07:21:42.154Z,6.92
2019-01-13T07:24:12.681Z,6.96
2019-01-13T07:26:43.230Z,6.98
2019-01-13T07:29:13.770Z,6.98
2019-01-13T07:31:44.328Z,6.96
2019-01-13T07:34:14.846Z,6.95
2019-01-13T07:36:45.377Z,6.96
2019-01-13T07:39:15.927Z,7.00
2019-01-13T07:41:46.520Z,7.01
2019-01-13T07:44:17.620Z,7.04
2019-01-13T07:46:48.198Z,7.05
2019-01-13T07:49:21.273Z,7.03
2019-01-13T07:51:51.804Z,7.04
2019-01-13T07:54:22.404Z,7.04
2019-01-13T07:56:52.977Z,7.05
2019-01-13T07:59:25.595Z,7.03
2019-01-13T08:01:56.122Z,7.03
2019-01-13T08:04:26.648Z,7.02
2019-01-13T08:06:57.227Z,7.05
2019-01-13T08:09:30.542Z,7.05
2019-01-13T08:12:01.063Z,7.06
2019-01-13T08:14:33.998Z,7.06
2019-01-13T08:17:04.540Z,7.06
2019-01-13T08:19:35.070Z,7.07
2019-01-13T08:22:05.581Z,7.09
2019-01-13T08:24:36.107Z,7.09
2019-01-13T08:27:06.759Z,7.08
2019-01-13T08:29:37.242Z,7.09
2019-01-13T08:32:07.760Z,7.11
2019-01-13T08:34:38.296Z,7.13
2019-01-13T08:37:08.841Z,7.15
2019-01-13T08:39:39.401Z,7.16
2019-01-13T08:42:12.097Z,7.17
2019-01-13T08:44:42.637Z,7.19
2019-01-13T08:47:13.138Z,7.19
2019-01-13T08:49:43.688Z,7.23
2019-01-13T08:52:14.221Z,7.22
2019-01-13T08:54:44.802Z,7.22
2019-01-13T08:57:15.278Z,7.23
2019-01-13T08:59:45.855Z,7.23
2019-01-13T09:02:16.407Z,7.24
2019-01-13T09:04:46.911Z,7.25
2019-01-13T09:07:17.443Z,7.25
2019-01-13T09:09:47.964Z,7.29
2019-01-13T09:12:18.483Z,7.29
2019-01-13T09:14:49.081Z,7.29
2019-01-13T09:17:19.564Z,7.27
2019-01-13T09:19:50.137Z,7.32
2019-01-13T09:22:20.666Z,7.34
2019-01-13T09:24:51.194Z,7.34
2019-01-13T09:27:21.723Z,7.35
2019-01-13T09:29:52.237Z,7.38
2019-01-13T09:32:24.296Z,7.41
2019-01-13T09:34:54.893Z,7.42
2019-01-13T09:37:25.449Z,7.44
2019-01-13T09:39:56.017Z,7.45
2019-01-13T09:42:26.526Z,7.47
2019-01-13T09:44:57.103Z,7.48
2019-01-13T09:47:27.607Z,7.53
2019-01-13T09:49:58.190Z,7.54
2019-01-13T09:52:28.740Z,7.58
2019-01-13T09:54:59.305Z,7.62
2019-01-13T09:57:29.790Z,7.65
2019-01-13T10:00:02.742Z,7.66
2019-01-13T10:02:33.290Z,7.65
2019-01-13T10:05:03.927Z,7.69
2019-01-13T10:07:36.190Z,7.71
2019-01-13T10:10:08.892Z,7.73
2019-01-13T10:12:39.412Z,7.77
2019-01-13T10:15:15.354Z,7.76
2019-01-13T10:17:45.908Z,7.83
2019-01-13T10:20:17.271Z,7.80
2019-01-13T10:22:47.820Z,7.83
2019-01-13T10:25:21.902Z,7.85
2019-01-13T10:27:52.488Z,7.88
2019-01-13T10:30:29.389Z,7.88
2019-01-13T10:33:00.059Z,7.88
2019-01-13T10:35:30.971Z,7.92
2019-01-13T10:38:01.785Z,7.92
2019-01-13T10:40:34.204Z,7.95
2019-01-13T10:43:04.748Z,8.00
2019-01-13T10:45:35.354Z,8.03
2019-01-13T10:48:08.634Z,8.04
2019-01-13T10:50:39.176Z,8.07
2019-01-13T10:53:10.447Z,8.08
2019-01-13T10:55:43.064Z,8.12
2019-01-13T10:58:13.607Z,8.14
2019-01-13T11:00:44.224Z,8.12
2019-01-13T11:03:14.759Z,8.14
2019-01-13T11:05:45.315Z,8.15
2019-01-13T11:08:15.863Z,8.17
2019-01-13T11:10:46.498Z,8.15
2019-01-13T11:13:17.105Z,8.11
2019-01-13T11:15:47.716Z,8.14
2019-01-13T11:18:21.304Z,8.16
2019-01-13T11:20:51.831Z,8.19
2019-01-13T11:23:22.354Z,8.25
2019-01-13T11:25:52.919Z,8.26
2019-01-13T11:28:23.470Z,8.28
2019-01-13T11:30:54.030Z,8.29
2019-01-13T11:33:24.552Z,8.34
2019-01-13T11:35:56.152Z,8.35
2019-01-13T11:38:29.068Z,8.34
2019-01-13T11:40:59.622Z,8.33
2019-01-13T11:43:30.188Z,8.35
2019-01-13T11:46:00.762Z,8.38
2019-01-13T11:48:31.322Z,8.37
2019-01-13T11:51:01.879Z,8.40
2019-01-13T11:53:32.391Z,8.39
2019-01-13T11:56:04.452Z,8.42
2019-01-13T11:58:43.118Z,8.42
2019-01-13T12:01:13.869Z,8.43
2019-01-13T12:03:44.380Z,8.43
2019-01-13T12:06:17.983Z,8.42
2019-01-13T12:08:48.537Z,8.48
2019-01-13T12:11:19.132Z,8.49
2019-01-13T12:13:49.695Z,8.50
2019-01-13T12:16:20.967Z,8.52
2019-01-13T12:18:52.576Z,8.50
2019-01-13T12:21:23.127Z,8.54
2019-01-13T12:23:55.709Z,8.56
2019-01-13T12:26:26.294Z,8.57
2019-01-13T12:29:05.626Z,8.57
2019-01-13T12:31:36.197Z,8.58
2019-01-13T12:34:06.861Z,8.57
2019-01-13T12:36:41.386Z,8.59
2019-01-13T12:39:13.795Z,8.53
2019-01-13T12:41:44.360Z,8.54
2019-01-13T12:44:14.887Z,8.50
2019-01-13T12:46:45.476Z,8.55
2019-01-13T12:49:16.035Z,8.57
2019-01-13T12:51:46.650Z,8.57
2019-01-13T12:54:17.176Z,8.63
2019-01-13T12:56:50.544Z,8.63
2019-01-13T12:59:21.086Z,8.68
2019-01-13T13:01:51.665Z,8.69
2019-01-13T13:04:22.219Z,8.68
2019-01-13T13:06:52.828Z,8.70
2019-01-13T13:09:23.357Z,8.69
2019-01-13T13:11:53.883Z,8.72
2019-01-13T13:14:24.417Z,8.73
2019-01-13T13:16:54.973Z,8.74
2019-01-13T13:19:30.422Z,8.79
2019-01-13T13:22:02.675Z,8.81
2019-01-13T13:24:33.251Z,8.81
2019-01-13T13:27:03.820Z,8.82
2019-01-13T13:29:34.387Z,8.85
2019-01-13T13:32:04.935Z,8.88
2019-01-13T13:34:35.484Z,8.85
2019-01-13T13:37:06.059Z,8.84
2019-01-13T13:39:36.595Z,8.80
2019-01-13T13:42:07.172Z,8.83
2019-01-13T13:44:37.683Z,8.85
2019-01-13T13:47:08.261Z,8.86
2019-01-13T13:49:38.789Z,8.88
2019-01-13T13:52:09.352Z,8.89
2019-01-13T13:54:39.940Z,8.88
2019-01-13T13:57:10.531Z,8.92
2019-01-13T13:59:41.129Z,8.92
2019-01-13T14:02:11.664Z,8.95
2019-01-13T14:04:42.169Z,8.96
2019-01-13T14:07:12.711Z,8.99
2019-01-13T14:09:44.902Z,9.02
2019-01-13T14:12:15.454Z,9.07
2019-01-13T14:14:46.004Z,9.07
2019-01-13T14:17:16.596Z,9.07
2019-01-13T14:19:47.133Z,9.05
2019-01-13T14:22:17.684Z,9.02
2019-01-13T14:24:48.249Z,9.06
2019-01-13T14:27:18.782Z,9.06
2019-01-13T14:29:49.326Z,9.07
2019-01-13T14:32:19.836Z,9.09
2019-01-13T14:34:50.444Z,9.08
2019-01-13T14:37:21.055Z,9.08
2019-01-13T14:39:51.612Z,9.12
2019-01-13T14:42:22.169Z,9.07
2019-01-13T14:44:54.280Z,9.07
2019-01-13T14:47:24.899Z,9.09
2019-01-13T14:49:55.546Z,9.09
2019-01-13T14:52:26.057Z,9.10
2019-01-13T14:54:56.657Z,9.11
2019-01-13T14:57:31.430Z,9.09
2019-01-13T15:00:01.953Z,9.12
2019-01-13T15:02:32.481Z,9.09
2019-01-13T15:05:02.995Z,9.09
2019-01-13T15:07:33.563Z,9.09
2019-01-13T15:10:04.479Z,9.05
2019-01-13T15:12:35.055Z,9.05
2019-01-13T15:15:06.675Z,9.07
2019-01-13T15:17:40.373Z,9.04
2019-01-13T15:20:14.682Z,9.07
2019-01-13T15:22:45.650Z,9.06
2019-01-13T15:25:27.097Z,9.06
2019-01-13T15:27:57.783Z,9.05
2019-01-13T15:30:39.997Z,9.03
2019-01-13T15:33:12.149Z,9.02
2019-01-13T15:35:42.726Z,9.01
2019-01-13T15:38:13.286Z,9.01
2019-01-13T15:40:47.609Z,9.01
2019-01-13T15:43:20.224Z,9.02
2019-01-13T15:45:52.313Z,9.03
2019-01-13T15:48:23.037Z,9.01
2019-01-13T15:50:53.567Z,9.04
2019-01-13T15:53:24.156Z,9.01
2019-01-13T15:55:54.698Z,9.04
2019-01-13T15:58:25.241Z,9.05
2019-01-13T16:00:57.111Z,9.04
2019-01-13T16:03:27.647Z,9.06
2019-01-13T16:05:58.213Z,9.06
2019-01-13T16:08:31.575Z,9.01
2019-01-13T16:11:02.102Z,9.03
2019-01-13T16:13:32.689Z,9.04
2019-01-13T16:16:03.264Z,9.03
2019-01-13T16:18:34.546Z,9.05
2019-01-13T16:21:05.109Z,9.03
2019-01-13T16:23:35.709Z,9.02
2019-01-13T16:26:06.474Z,9.10
2019-01-13T16:28:40.209Z,9.12
2019-01-13T16:31:10.754Z,9.13
2019-01-13T16:33:41.355Z,9.16
2019-01-13T16:36:11.927Z,9.14
2019-01-13T16:38:42.463Z,9.16
2019-01-13T16:41:13.027Z,9.17
2019-01-13T16:43:43.575Z,9.20
2019-01-13T16:46:14.143Z,9.22
2019-01-13T16:48:44.746Z,9.23
2019-01-13T16:51:18.202Z,9.22
2019-01-13T16:53:48.798Z,9.24
2019-01-13T16:56:19.306Z,9.25
2019-01-13T16:58:50.035Z,9.20
2019-01-13T17:01:20.671Z,9.23
2019-01-13T17:03:51.237Z,9.27
2019-01-13T17:06:21.742Z,9.22
2019-01-13T17:08:52.361Z,9.21
2019-01-13T17:11:22.852Z,9.18
2019-01-13T17:13:53.473Z,9.17
2019-01-13T17:16:23.958Z,9.14
2019-01-13T17:18:54.580Z,9.16
2019-01-13T17:21:25.076Z,9.20
2019-01-13T17:23:55.685Z,9.21
2019-01-13T17:26:26.215Z,9.27
2019-01-13T17:28:56.768Z,9.25
2019-01-13T17:31:27.471Z,9.25
2019-01-13T17:33:58.059Z,9.25
2019-01-13T17:36:28.617Z,9.37
2019-01-13T17:38:59.228Z,9.32
2019-01-13T17:41:31.447Z,9.39
2019-01-13T17:44:02.047Z,9.39
2019-01-13T17:46:32.553Z,9.33
2019-01-13T17:49:03.153Z,9.33
2019-01-13T17:51:33.710Z,9.35
2019-01-13T17:54:04.326Z,9.35
2019-01-13T17:56:34.907Z,9.39
2019-01-13T17:59:05.446Z,9.38
2019-01-13T18:01:47.643Z,9.43
2019-01-13T18:04:18.213Z,9.42
2019-01-13T18:06:49.972Z,9.39
2019-01-13T18:09:20.539Z,9.44
2019-01-13T18:11:51.172Z,9.46
2019-01-13T18:14:21.719Z,9.44
2019-01-13T18:16:52.238Z,9.47
2019-01-13T18:19:25.845Z,9.46
2019-01-13T18:21:58.162Z,9.47
2019-01-13T18:24:28.743Z,9.47
2019-01-13T18:27:00.952Z,9.43
2019-01-13T18:29:31.496Z,9.49
2019-01-13T18:32:02.069Z,9.57
2019-01-13T18:34:32.623Z,9.60
2019-01-13T18:37:06.187Z,9.54
2019-01-13T18:39:36.779Z,9.51
2019-01-13T18:42:07.530Z,9.46
2019-01-13T18:44:38.288Z,9.41
2019-01-13T18:47:08.819Z,9.35
2019-01-13T18:49:39.423Z,9.34
2019-01-13T18:52:12.926Z,9.33
2019-01-13T18:54:43.458Z,9.27
2019-01-13T18:57:13.998Z,9.21
2019-01-13T18:59:44.613Z,9.19
2019-01-13T19:02:15.142Z,9.13
2019-01-13T19:04:45.806Z,9.13
2019-01-13T19:07:18.665Z,9.13
2019-01-13T19:09:49.259Z,9.12
2019-01-13T19:12:19.838Z,9.12
2019-01-13T19:14:58.368Z,9.13
2019-01-13T19:17:29.408Z,9.11
2019-01-13T19:20:24.565Z,9.12
2019-01-13T19:22:59.770Z,9.10
2019-01-13T19:25:33.229Z,9.11
2019-01-13T19:28:03.854Z,9.08
2019-01-13T19:30:34.374Z,9.08
2019-01-13T19:33:05.108Z,9.07
2019-01-13T19:35:35.647Z,9.12
2019-01-13T19:38:06.922Z,9.07
2019-01-13T19:40:38.332Z,9.08
2019-01-13T19:43:08.893Z,9.14
2019-01-13T19:45:39.422Z,9.17
2019-01-13T19:48:09.983Z,9.12
2019-01-13T19:50:40.500Z,9.12
2019-01-13T19:53:11.128Z,9.14
2019-01-13T19:55:41.605Z,9.14
2019-01-13T19:58:14.949Z,9.11
2019-01-13T20:00:45.478Z,9.12
2019-01-13T20:03:16.064Z,9.11
2019-01-13T20:05:46.636Z,9.05
2019-01-13T20:08:17.238Z,9.04
2019-01-13T20:10:52.365Z,9.03
2019-01-13T20:13:22.880Z,9.04
2019-01-13T20:15:53.465Z,9.03
2019-01-13T20:18:24.047Z,9.01
2019-01-13T20:20:54.639Z,9.02
2019-01-13T20:23:25.249Z,9.00
2019-01-13T20:25:55.822Z,9.01
2019-01-13T20:28:27.637Z,9.01
2019-01-13T20:31:00.917Z,8.99
2019-01-13T20:33:31.455Z,8.98
2019-01-13T20:36:02.003Z,8.96
2019-01-13T20:38:32.563Z,8.96
2019-01-13T20:41:03.098Z,8.88
2019-01-13T20:43:33.646Z,8.90
2019-01-13T20:46:04.396Z,8.86
2019-01-13T20:48:34.957Z,8.83
2019-01-13T20:51:05.542Z,8.78
2019-01-13T20:53:36.064Z,8.75
2019-01-13T20:56:06.745Z,8.75
2019-01-13T20:58:37.310Z,8.72
2019-01-13T21:01:07.863Z,8.70
2019-01-13T21:03:38.418Z,8.71
2019-01-13T21:06:08.940Z,8.69
2019-01-13T21:08:39.441Z,8.71
2019-01-13T21:11:10.015Z,8.70
2019-01-13T21:13:40.592Z,8.65
2019-01-13T21:16:12.155Z,8.53
2019-01-13T21:18:44.324Z,8.47
2019-01-13T21:21:14.826Z,8.40
2019-01-13T21:23:45.466Z,8.40
2019-01-13T21:26:16.019Z,8.38
2019-01-13T21:28:47.786Z,8.35
2019-01-13T21:31:18.341Z,8.32
2019-01-13T21:33:48.866Z,8.26
2019-01-13T21:36:19.384Z,8.26
2019-01-13T21:38:49.940Z,8.20
2019-01-13T21:41:20.491Z,8.15
2019-01-13T21:43:51.020Z,8.12
2019-01-13T21:46:21.585Z,8.07
2019-01-13T21:48:52.134Z,8.01
2019-01-13T21:51:22.733Z,7.95
2019-01-13T21:53:53.294Z,7.87
2019-01-13T21:56:23.817Z,7.84
2019-01-13T21:58:54.426Z,7.80
2019-01-13T22:01:27.997Z,7.78
2019-01-13T22:03:58.579Z,7.77
2019-01-13T22:06:29.091Z,7.78
2019-01-13T22:08:59.611Z,7.80
2019-01-13T22:11:32.992Z,7.78
2019-01-13T22:14:03.527Z,7.76
2019-01-13T22:16:34.041Z,7.79
2019-01-13T22:19:04.595Z,7.79
2019-01-13T22:21:35.164Z,7.76
2019-01-13T22:24:05.873Z,7.74
2019-01-13T22:26:36.479Z,7.71
2019-01-13T22:29:07.046Z,7.70
2019-01-13T22:31:37.560Z,7.71
2019-01-13T22:34:08.093Z,7.66
2019-01-13T22:36:38.660Z,7.65
2019-01-13T22:39:09.882Z,7.68
2019-01-13T22:41:40.411Z,7.66
2019-01-13T22:44:10.946Z,7.60
2019-01-13T22:46:41.513Z,7.63
2019-01-13T22:49:12.051Z,7.56
2019-01-13T22:51:42.586Z,7.61
2019-01-13T22:54:13.155Z,7.55
2019-01-13T22:56:43.660Z,7.57
2019-01-13T22:59:14.210Z,7.55
2019-01-13T23:01:46.423Z,7.51
2019-01-13T23:04:21.471Z,7.44
2019-01-13T23:06:51.975Z,7.43
2019-01-13T23:09:22.488Z,7.38
2019-01-13T23:11:53.019Z,7.35
2019-01-13T23:14:23.626Z,7.33
2019-01-13T23:16:54.236Z,7.31
2019-01-13T23:19:24.777Z,7.29
2019-01-13T23:21:58.329Z,7.27
2019-01-13T23:24:28.891Z,7.24
2019-01-13T23:26:59.388Z,7.21
2019-01-13T23:29:29.878Z,7.19
2019-01-13T23:32:00.484Z,7.16
2019-01-13T23:34:30.975Z,7.14
2019-01-13T23:37:01.500Z,7.09
2019-01-13T23:39:32.029Z,7.09
2019-01-13T23:42:02.645Z,7.13
2019-01-13T23:44:33.174Z,7.09
2019-01-13T23:47:03.695Z,7.08
2019-01-13T23:49:34.473Z,7.04
2019-01-13T23:52:05.069Z,7.03
2019-01-13T23:54:35.611Z,7.04
2019-01-13T23:57:06.113Z,7.08
2019-01-13T23:59:36.646Z,7.07
